This is the latest recevied weather packets stored in our database for station/object N3HBJ. If no packets are shown the sender has not sent any weather packets the latest 10 day(s).
| Time | Temp. | Humidity | Pressure | Rain* | Wind** | Luminosity | Snow |
|---|---|---|---|---|---|---|---|
| 1778010169 | 22.22° C | 49% | 1007.9 hPa | 0 mm | - | 241 W/m² | - |
| 1778006562 | 23.33° C | 42% | 1008 hPa | 0 mm | - | 204 W/m² | - |
| 1778003559 | 22.22° C | 44% | 1007.8 hPa | 0 mm | - | 271 W/m² | - |
| 1778002051 | 22.22° C | 42% | 1008 hPa | 0 mm | - | 334 W/m² | - |
| 1778000550 | 22.78° C | 42% | 1008.3 hPa | 0 mm | - | 508 W/m² | - |
| 1777999953 | 22.22° C | 44% | 1008.4 hPa | 0 mm | - | 501 W/m² | - |
| 1777999194 | 22.22° C | 44% | 1008.4 hPa | 0 mm | - | 529 W/m² | - |
| 1777992584 | 21.67° C | 50% | 1009.2 hPa | 0 mm | - | 199 W/m² | - |
| 1777992144 | 21.67° C | 50% | 1009.2 hPa | 0 mm | - | 364 W/m² | - |
| 1777989745 | 21.11° C | 50% | 1009 hPa | 0 mm | - | 334 W/m² | - |
| 1777989444 | 21.11° C | 50% | 1009 hPa | 0 mm | - | 309 W/m² | - |
| 1777988844 | 21.67° C | 49% | 1008.9 hPa | 0 mm | - | 283 W/m² | - |
| 1777987480 | 20.56° C | 54% | 1008.8 hPa | 0 mm | - | 522 W/m² | - |
| 1777984646 | 19.44° C | 57% | 1009.1 hPa | 0 mm | - | 380 W/m² | - |
| 1777980744 | 17.78° C | 61% | 1009.2 hPa | 0 mm | - | 81 W/m² | - |
| 1777979841 | 17.22° C | 61% | 1009.2 hPa | 0 mm | - | 76 W/m² | - |
| 1777978940 | 17.22° C | 61% | 1008.9 hPa | 0 mm | - | 63 W/m² | - |
| 1777977132 | 16.67° C | 60% | 1008.6 hPa | 0 mm | - | 14 W/m² | - |
| 1777976230 | 16.67° C | 61% | 1008.6 hPa | 0 mm | - | 0 W/m² | - |
| 1777975773 | 16.67° C | 62% | 1008.3 hPa | 0 mm | - | 0 W/m² | - |
| 1777972008 | 16.67° C | 62% | 1008.3 hPa | 0 mm | - | 0 W/m² | - |
| 1777971707 | 16.67° C | 62% | 1008.3 hPa | 0 mm | - | 0 W/m² | - |
| 1777969905 | 17.22° C | 61% | 1008.4 hPa | 0 mm | - | 0 W/m² | - |
| 1777967200 | 17.22° C | 62% | 1007.9 hPa | 0 mm | - | 0 W/m² | - |
| 1777965700 | 17.22° C | 61% | 1007.6 hPa | 0 mm | - | 0 W/m² | - |
* Rain latest hour (hover to see other rain measurements)
** Current wind speed in m/s (hover to see current wind gust speed)